WetterOnline ( https://www.wetteronline.de )

Wetter aktuell Braak

Aktuelles Wetter: Hamburg/Fuhlsbüttel (15m)

6-stündlich | Neueste Meldungen
Ortszeit Temperatur Wetter
Fr, 06.12. 13:00 5.5° C Sprühregen
Fr, 06.12. 7:00 5.6° C leichter Regen
Fr, 06.12. 1:00 2.8° C bedeckt
Do, 05.12. 19:00 3.0° C bedeckt
Do, 05.12. 13:00 4.1° C fast wolkenlos
Do, 05.12. 7:00 -0.7° C fast wolkenlos
Do, 05.12. 1:00 1.7° C leicht bewölkt
Mi, 04.12. 19:00 5.2° C bewölkt
Ortszeit Temperatur Wetter
Fr, 06.12. 15:00 5.8° C Sprühregen
Fr, 06.12. 14:50 6° C Sprühregen
Fr, 06.12. 14:40 5.8° C -
Fr, 06.12. 14:30 5.8° C -
Fr, 06.12. 14:20 5.8° C -
Fr, 06.12. 14:10 5.8° C -
Fr, 06.12. 14:00 5.8° C Sprühregen
Fr, 06.12. 13:30 5.7° C -
Fr, 06.12. 13:00 5.5° C Sprühregen
Fr, 06.12. 12:30 5.4° C -
Fr, 06.12. 12:00 5.4° C Sprühregen
Fr, 06.12. 11:30 5.3° C -
Ortszeit Relative Feuchte Sichtweite
Fr, 06.12. 13:00 93% 6 km
Fr, 06.12. 7:00 92% 6 km
Fr, 06.12. 1:00 84% 8 km
Do, 05.12. 19:00 90% 6 km
Do, 05.12. 13:00 78% 14 km
Do, 05.12. 7:00 99% 5.0 km
Do, 05.12. 1:00 92% 7 km
Mi, 04.12. 19:00 85% 15 km
Ortszeit Relative Feuchte Sichtweite
Fr, 06.12. 15:00 93% 5.0 km
Fr, 06.12. 14:50 93% 5.0 km
Fr, 06.12. 14:40 93% -
Fr, 06.12. 14:30 94% 6 km
Fr, 06.12. 14:20 94% -
Fr, 06.12. 14:10 94% -
Fr, 06.12. 14:00 93% 5.0 km
Fr, 06.12. 13:30 93% 6 km
Fr, 06.12. 13:00 93% 6 km
Fr, 06.12. 12:30 94% 3.9 km
Fr, 06.12. 12:00 94% 4.8 km
Fr, 06.12. 11:30 94% 2.8 km
Ortszeit Niederschlagsmenge Niederschlagsart
Fr, 06.12. 13:00 0.9 l/m2 in 6 Std. Regen
Fr, 06.12. 7:00 0.7 l/m2 in 12 Std. Regen
Fr, 06.12. 1:00 0.0 l/m2 in 6 Std. -
Do, 05.12. 19:00 0.0 l/m2 in 12 Std. -
Do, 05.12. 13:00 0.0 l/m2 in 6 Std. -
Do, 05.12. 7:00 0.0 l/m2 in 12 Std. -
Do, 05.12. 1:00 0.0 l/m2 in 6 Std. -
Mi, 04.12. 19:00 0.1 l/m2 in 12 Std. Sprühregen
Ortszeit Niederschlagsmenge Niederschlagsart
Fr, 06.12. 15:00 0.2 l/m2 in 1 Std. Regen
Fr, 06.12. 14:50 keine Meldung -
Fr, 06.12. 14:40 keine Meldung -
Fr, 06.12. 14:30 0.2 l/m2 in 1 Std. -
Fr, 06.12. 14:20 keine Meldung -
Fr, 06.12. 14:10 keine Meldung -
Fr, 06.12. 14:00 0.1 l/m2 in 1 Std. Sprühregen
Fr, 06.12. 13:30 0.1 l/m2 in 1 Std. -
Fr, 06.12. 13:00 0.1 l/m2 in 1 Std. Regen
Fr, 06.12. 12:30 0.0 l/m2 in 1 Std. -
Fr, 06.12. 12:00 0.2 l/m2 in 1 Std. Regen
Fr, 06.12. 11:30 0.2 l/m2 in 1 Std. -
Ortszeit Stärke Spitze Richtung
km/h Bft. km/h Grad Sektor
Fr, 06.12. 13:00 30 5 52 220° SW
Fr, 06.12. 7:00 28 4 52 230° SW
Fr, 06.12. 1:00 30 5 46 220° SW
Do, 05.12. 19:00 26 4 35 210° SW
Do, 05.12. 13:00 17 3 24 220° SW
Do, 05.12. 7:00 6 1 15 200° S
Do, 05.12. 1:00 7 2 22 230° SW
Mi, 04.12. 19:00 15 3 22 210° SW
Ortszeit Stärke Spitze Richtung
km/h Bft. km/h Grad Sektor
Fr, 06.12. 15:00 32 5 47 210° SW
Fr, 06.12. 14:50 33 5 - 210° SW
Fr, 06.12. 14:40 31 5 - 220° SW
Fr, 06.12. 14:30 30 5 43 210° SW
Fr, 06.12. 14:20 30 5 - 210° SW
Fr, 06.12. 14:10 31 5 - 220° SW
Fr, 06.12. 14:00 28 4 44 220° SW
Fr, 06.12. 13:30 33 5 44 220° SW
Fr, 06.12. 13:00 30 5 50 220° SW
Fr, 06.12. 12:30 33 5 50 220° SW
Fr, 06.12. 12:00 33 5 52 220° SW
Fr, 06.12. 11:30 33 5 52 220° SW
Ortszeit Untergrenze Bedeckung Gattung
total tief tief mittel hoch
Fr, 06.12. 13:00 180 m 8/8 8/8 St - -
Fr, 06.12. 7:00 210 m 8/8 7/8 St - -
Fr, 06.12. 1:00 360 m 8/8 7/8 Sc - -
Do, 05.12. 19:00 180 m 8/8 7/8 St - -
Do, 05.12. 13:00 7800 m 1/8 0/8 - - Ci
Do, 05.12. 7:00 7800 m 1/8 0/8 - - Ci
Do, 05.12. 1:00 3300 m 2/8 2/8 - Ac -
Mi, 04.12. 19:00 480 m 7/8 7/8 Sc - -
Ortszeit Bedeckungsgrad in Achtel und Wolkenuntergrenze
Fr, 06.12. 15:00 7(180m)
Fr, 06.12. 14:50 5-7(180m)
Fr, 06.12. 14:40 -
Fr, 06.12. 14:30 -
Fr, 06.12. 14:20 -
Fr, 06.12. 14:10 -
Fr, 06.12. 14:00 7(180m)
Fr, 06.12. 13:30 -
Fr, 06.12. 13:00 8(180m)
Fr, 06.12. 12:30 -
Fr, 06.12. 12:00 7(180m)
Fr, 06.12. 11:30 -
Ortszeit Luftdruck NN (hPa) Tendenz (hPa in 3 Std.)
Fr, 06.12. 13:00 1005 - 1,4
Fr, 06.12. 7:00 1007 - 0,8
Fr, 06.12. 1:00 1010 - 3,1
Do, 05.12. 19:00 1015 - 1,5
Do, 05.12. 13:00 1018 - 0,5
Do, 05.12. 7:00 1019 0,0
Do, 05.12. 1:00 1020 - 0,9
Mi, 04.12. 19:00 1021 - 0,5
Ortszeit Luftdruck NN (hPa) Tendenz (hPa in 3 Std.)
Fr, 06.12. 15:00 1003 - 2,5
Fr, 06.12. 14:50 1003 keine Meldung
Fr, 06.12. 14:40 1003 keine Meldung
Fr, 06.12. 14:30 1004 - 2,5
Fr, 06.12. 14:20 1004 keine Meldung
Fr, 06.12. 14:10 1004 keine Meldung
Fr, 06.12. 14:00 1004 - 2,3
Fr, 06.12. 13:30 1005 - 1,6
Fr, 06.12. 13:00 1005 - 1,4
Fr, 06.12. 12:30 1006 - 1,1
Fr, 06.12. 12:00 1006 - 0,9
Fr, 06.12. 11:30 1006 - 0,3
Ortszeit Schneehöhe (cm)
Fr, 06.12. 13:00 0
Fr, 06.12. 7:00 0
Fr, 06.12. 1:00 0
Do, 05.12. 19:00 0
Do, 05.12. 13:00 0
Do, 05.12. 7:00 0
Do, 05.12. 1:00 0
Mi, 04.12. 19:00 0
Ortszeit Schneehöhe (cm)
Fr, 06.12. 15:00 -
Fr, 06.12. 14:50 -
Fr, 06.12. 14:40 -
Fr, 06.12. 14:30 -
Fr, 06.12. 14:20 -
Fr, 06.12. 14:10 -
Fr, 06.12. 14:00 -
Fr, 06.12. 13:30 -
Fr, 06.12. 13:00 0
Fr, 06.12. 12:30 -
Fr, 06.12. 12:00 -
Fr, 06.12. 11:30 -
Link zu dieser Seite / Seite empfehlen

Das Wetter in ...